Time;durP1;ratioP1;P1;durP2;ratioP2;P2;SDS_P1;SDS_P2;PMS_P1;PMS_P2;Temp;Humidity;BMP_temperature;BMP_pressure;BME280_temperature;BME280_humidity;BME280_pressure;Samples;Min_cycle;Max_cycle;Signal;HPM_P1;HPM_P2
2022/10/22 00:00:33;;;;;;;12.05;2.28;;;14.80;99.90;;;;;;5053591;28;20114;-64
2022/10/22 00:03:00;;;;;;;11.30;3.50;;;14.80;99.90;;;;;;5052942;28;20045;-64
2022/10/22 00:05:27;;;;;;;12.30;2.90;;;14.70;99.90;;;;;;5054101;28;20048;-64
2022/10/22 00:07:54;;;;;;;8.13;2.67;;;14.70;99.90;;;;;;5054133;28;20044;-64
2022/10/22 00:10:21;;;;;;;13.60;4.15;;;14.70;99.90;;;;;;5036243;28;20558;-64
2022/10/22 00:12:48;;;;;;;12.77;3.03;;;14.70;99.90;;;;;;5052632;28;20539;-64
2022/10/22 00:15:15;;;;;;;14.95;3.78;;;14.70;99.90;;;;;;5052615;28;20044;-64
2022/10/22 00:17:42;;;;;;;10.10;2.88;;;14.70;99.90;;;;;;5054076;28;20040;-64
2022/10/22 00:20:09;;;;;;;18.02;4.53;;;14.70;99.90;;;;;;5052659;28;20065;-64
2022/10/22 00:22:36;;;;;;;12.95;3.53;;;14.70;99.90;;;;;;5051984;28;20056;-64
2022/10/22 00:25:03;;;;;;;8.50;3.45;;;14.70;99.90;;;;;;5035833;28;20534;-64
2022/10/22 00:27:30;;;;;;;13.35;3.92;;;14.70;99.90;;;;;;5052387;28;20126;-64
2022/10/22 00:29:56;;;;;;;11.23;3.20;;;14.70;99.90;;;;;;5054203;28;20106;-64
2022/10/22 00:32:23;;;;;;;11.20;4.25;;;14.70;99.90;;;;;;5036136;28;20064;-64
2022/10/22 00:34:50;;;;;;;13.50;3.17;;;14.70;99.90;;;;;;5053815;28;20431;-64
2022/10/22 00:37:17;;;;;;;10.85;2.30;;;14.70;99.90;;;;;;5052137;28;20087;-64
2022/10/22 00:39:44;;;;;;;7.78;2.45;;;14.80;99.90;;;;;;5052604;28;20096;-64
2022/10/22 00:42:15;;;;;;;11.60;3.25;;;14.80;99.90;;;;;;5036533;28;20053;-64
2022/10/22 00:45:07;;;;;;;9.80;2.20;;;14.80;99.90;;;;;;5052084;28;20067;-63
2022/10/22 00:47:34;;;;;;;14.80;3.88;;;14.90;99.90;;;;;;5053222;28;20052;-63
2022/10/22 00:50:02;;;;;;;11.30;2.78;;;14.90;99.90;;;;;;5053577;28;20044;-63
2022/10/22 00:52:34;;;;;;;8.27;2.13;;;14.90;99.90;;;;;;5052698;28;20071;-63
2022/10/22 00:55:01;;;;;;;10.10;2.85;;;15.00;99.90;;;;;;5051910;28;20497;-63
2022/10/22 00:57:28;;;;;;;10.13;2.13;;;15.00;99.90;;;;;;5052871;28;20094;-65
2022/10/22 00:59:55;;;;;;;10.90;3.33;;;15.00;99.90;;;;;;5053074;28;20049;-64
2022/10/22 01:02:22;;;;;;;12.55;2.42;;;15.00;99.90;;;;;;5052083;28;20055;-65
2022/10/22 01:04:49;;;;;;;10.02;2.67;;;14.90;99.90;;;;;;5052230;28;20094;-64
2022/10/22 01:07:17;;;;;;;9.18;2.33;;;14.80;99.90;;;;;;5053299;28;20041;-64
2022/10/22 01:10:03;;;;;;;6.70;2.35;;;14.90;99.90;;;;;;5051758;28;20044;-64
2022/10/22 01:12:40;;;;;;;8.00;2.50;;;14.90;99.90;;;;;;5053517;28;20140;-63
2022/10/22 01:15:49;;;;;;;6.18;2.60;;;14.90;99.90;;;;;;5052396;28;20054;-64
2022/10/22 01:18:37;;;;;;;8.27;2.13;;;14.90;99.90;;;;;;5032927;28;20045;-64
2022/10/22 01:21:16;;;;;;;8.25;3.13;;;14.90;99.90;;;;;;5053041;28;20045;-64
2022/10/22 01:24:12;;;;;;;11.85;2.67;;;14.80;99.90;;;;;;5053062;28;20118;-64
2022/10/22 01:27:06;;;;;;;7.45;1.88;;;14.80;99.90;;;;;;5051497;28;20049;-64
2022/10/22 01:29:40;;;;;;;12.95;3.45;;;14.70;99.90;;;;;;5049084;28;20052;-64
2022/10/22 01:32:11;;;;;;;17.48;3.38;;;14.60;99.90;;;;;;5051815;28;20438;-64
2022/10/22 01:34:40;;;;;;;13.60;3.30;;;14.60;99.90;;;;;;5035186;28;20152;-64
2022/10/22 01:37:07;;;;;;;11.82;3.58;;;14.60;99.90;;;;;;5051408;28;20151;-63
2022/10/22 01:39:33;;;;;;;7.97;2.50;;;14.50;99.90;;;;;;5035043;28;20510;-63
2022/10/22 01:42:00;;;;;;;9.25;3.05;;;14.50;99.90;;;;;;5051248;28;20123;-64
2022/10/22 01:44:29;;;;;;;11.23;4.05;;;14.40;99.90;;;;;;5051113;28;20468;-64
2022/10/22 01:47:11;;;;;;;10.80;3.17;;;14.40;99.90;;;;;;5051614;28;20080;-64
2022/10/22 01:50:01;;;;;;;12.07;3.15;;;14.40;99.90;;;;;;5051880;28;20041;-64
2022/10/22 01:52:55;;;;;;;12.73;3.85;;;14.50;99.90;;;;;;5055875;28;20049;-64
2022/10/22 01:55:28;;;;;;;15.10;2.60;;;14.50;99.90;;;;;;5055248;28;20422;-64
2022/10/22 01:58:09;;;;;;;12.18;3.08;;;14.50;99.90;;;;;;5056109;28;20049;-64
2022/10/22 02:00:37;;;;;;;8.18;2.65;;;14.60;99.90;;;;;;5055327;28;20083;-64
2022/10/22 02:03:12;;;;;;;15.57;3.53;;;14.60;99.90;;;;;;5038581;28;20037;-64
2022/10/22 02:05:48;;;;;;;7.53;2.35;;;14.60;99.90;;;;;;5056343;28;20040;-63
2022/10/22 02:08:17;;;;;;;9.60;2.95;;;14.60;99.90;;;;;;5055805;28;20110;-64
2022/10/22 02:10:45;;;;;;;10.63;2.95;;;14.50;99.90;;;;;;5055252;28;20547;-64
2022/10/22 02:13:27;;;;;;;7.20;2.30;;;14.50;99.90;;;;;;5055227;28;20498;-64
2022/10/22 02:15:53;;;;;;;11.10;2.47;;;14.50;99.90;;;;;;5055832;28;20045;-64
2022/10/22 02:18:22;;;;;;;9.93;2.53;;;14.50;99.90;;;;;;5055714;28;20094;-64
2022/10/22 02:20:49;;;;;;;11.77;2.57;;;14.50;99.90;;;;;;5055043;28;20114;-64
2022/10/22 02:23:16;;;;;;;9.10;3.55;;;14.60;99.90;;;;;;5054939;28;20316;-64
2022/10/22 02:25:44;;;;;;;8.35;2.70;;;14.60;99.90;;;;;;5054974;28;20048;-64
2022/10/22 02:28:15;;;;;;;10.25;2.47;;;14.60;99.90;;;;;;5055612;28;20102;-63
2022/10/22 02:30:43;;;;;;;8.88;2.95;;;14.60;99.90;;;;;;5054878;28;20041;-64
2022/10/22 02:33:15;;;;;;;10.05;2.17;;;14.60;99.90;;;;;;5055495;28;20334;-64
2022/10/22 02:35:41;;;;;;;10.68;2.55;;;14.60;99.90;;;;;;5054556;28;20048;-64
2022/10/22 02:38:08;;;;;;;9.82;2.50;;;14.60;99.90;;;;;;5054440;28;20099;-64
2022/10/22 02:40:35;;;;;;;7.47;2.58;;;14.50;99.90;;;;;;5054376;28;20461;-64
2022/10/22 02:43:05;;;;;;;11.18;2.75;;;14.50;99.90;;;;;;5054238;28;20099;-64
2022/10/22 02:45:32;;;;;;;6.85;2.75;;;14.50;99.90;;;;;;5054463;28;20094;-64
2022/10/22 02:47:59;;;;;;;4.72;2.25;;;14.50;99.90;;;;;;5054614;28;20041;-64
2022/10/22 02:50:26;;;;;;;12.30;2.63;;;14.50;99.90;;;;;;5055414;28;20117;-63
2022/10/22 02:52:53;;;;;;;11.05;3.08;;;14.40;99.90;;;;;;5055676;28;20107;-64
2022/10/22 02:55:20;;;;;;;9.55;2.72;;;14.40;99.90;;;;;;5055257;28;20037;-63
2022/10/22 02:57:47;;;;;;;7.85;2.83;;;14.40;99.90;;;;;;5055912;28;20114;-64
2022/10/22 03:00:14;;;;;;;9.75;2.92;;;14.40;99.90;;;;;;5055974;28;20045;-64
2022/10/22 03:02:42;;;;;;;8.88;2.35;;;14.40;99.90;;;;;;5053453;28;20480;-64
2022/10/22 03:05:08;;;;;;;6.65;2.30;;;14.40;99.90;;;;;;5055125;28;20037;-63
2022/10/22 03:07:35;;;;;;;6.57;2.85;;;14.50;99.90;;;;;;5054203;28;20127;-63
2022/10/22 03:10:03;;;;;;;6.35;1.92;;;14.50;99.90;;;;;;5053856;28;20041;-64
2022/10/22 03:12:29;;;;;;;7.97;2.58;;;14.60;99.90;;;;;;5054784;28;20102;-64
2022/10/22 03:14:56;;;;;;;10.80;2.67;;;14.60;99.90;;;;;;5054681;28;20194;-63
2022/10/22 03:17:23;;;;;;;11.48;2.88;;;14.60;99.90;;;;;;5053686;28;20476;-64
2022/10/22 03:19:50;;;;;;;6.13;2.05;;;14.60;99.90;;;;;;5054869;28;20527;-64
2022/10/22 03:22:22;;;;;;;7.88;2.40;;;14.60;99.90;;;;;;5055128;28;20430;-65
2022/10/22 03:24:51;;;;;;;7.78;2.40;;;14.60;99.90;;;;;;5054632;28;20106;-64
2022/10/22 03:27:18;;;;;;;9.30;3.33;;;14.60;99.90;;;;;;5053376;28;20041;-64
2022/10/22 03:29:45;;;;;;;10.95;2.05;;;14.60;99.90;;;;;;5053297;28;20485;-64
2022/10/22 03:32:12;;;;;;;8.38;2.50;;;14.50;99.90;;;;;;5053397;28;20044;-64
2022/10/22 03:34:39;;;;;;;5.30;1.73;;;14.50;99.90;;;;;;5054123;28;20045;-64
2022/10/22 03:37:06;;;;;;;6.10;1.77;;;14.60;99.90;;;;;;5055542;28;20126;-64
2022/10/22 03:39:33;;;;;;;4.88;1.60;;;14.60;99.90;;;;;;5055619;28;20053;-64
2022/10/22 03:42:00;;;;;;;8.68;2.42;;;14.60;99.90;;;;;;5053907;28;20416;-64
2022/10/22 03:44:27;;;;;;;8.95;2.20;;;14.60;99.90;;;;;;5053856;28;20099;-64
2022/10/22 03:47:15;;;;;;;9.13;2.60;;;14.60;99.90;;;;;;5036462;28;20489;-64
2022/10/22 03:49:42;;;;;;;6.97;2.53;;;14.60;99.90;;;;;;5054614;28;20114;-64
2022/10/22 03:52:10;;;;;;;13.65;2.63;;;14.60;99.90;;;;;;5053857;28;20534;-64
2022/10/22 03:54:37;;;;;;;5.88;1.88;;;14.60;99.90;;;;;;5054970;28;20103;-64
2022/10/22 03:57:09;;;;;;;7.72;1.95;;;14.60;99.90;;;;;;5037881;28;20049;-64
2022/10/22 03:59:38;;;;;;;9.77;1.67;;;14.60;99.90;;;;;;5053320;28;20120;-63
2022/10/22 04:02:04;;;;;;;12.80;2.60;;;14.50;99.90;;;;;;5054166;28;20067;-63
2022/10/22 04:04:31;;;;;;;9.52;2.15;;;14.50;99.90;;;;;;5053074;28;20040;-63
2022/10/22 04:06:58;;;;;;;10.23;2.28;;;14.50;99.90;;;;;;5053614;28;20041;-64
2022/10/22 04:09:25;;;;;;;9.07;2.15;;;14.40;99.90;;;;;;5052791;28;20048;-63
2022/10/22 04:11:52;;;;;;;6.53;1.83;;;14.30;99.90;;;;;;5036261;28;20080;-64
2022/10/22 04:14:19;;;;;;;5.88;1.60;;;14.30;99.90;;;;;;5053859;28;20377;-64
2022/10/22 04:16:46;;;;;;;8.73;2.30;;;14.20;99.90;;;;;;5053814;28;20090;-64
2022/10/22 04:19:13;;;;;;;9.05;2.20;;;14.10;99.90;;;;;;5052639;28;20056;-64
2022/10/22 04:21:39;;;;;;;9.90;2.13;;;14.10;99.90;;;;;;5053329;28;20045;-63
2022/10/22 04:24:06;;;;;;;15.27;3.05;;;14.00;99.90;;;;;;5052793;28;20045;-63
2022/10/22 04:26:33;;;;;;;9.75;2.35;;;13.90;99.90;;;;;;5052367;28;20385;-63
2022/10/22 04:29:00;;;;;;;8.32;2.45;;;13.90;99.90;;;;;;5053736;28;20045;-63
2022/10/22 04:31:27;;;;;;;12.10;2.28;;;13.90;99.90;;;;;;5054707;28;20052;-63
2022/10/22 04:33:55;;;;;;;9.80;2.85;;;13.80;99.90;;;;;;5052479;28;20365;-63
2022/10/22 04:36:22;;;;;;;12.85;2.70;;;13.80;99.90;;;;;;5035894;28;20436;-63
2022/10/22 04:38:57;;;;;;;8.48;3.15;;;13.70;99.90;;;;;;5054403;28;20041;-64
2022/10/22 04:41:29;;;;;;;11.48;2.53;;;13.70;99.90;;;;;;5053607;28;20045;-64
2022/10/22 04:43:56;;;;;;;11.05;3.05;;;13.60;99.90;;;;;;5052248;28;20106;-64
2022/10/22 04:46:23;;;;;;;15.27;3.92;;;13.60;99.90;;;;;;5035742;28;20040;-63
2022/10/22 04:48:51;;;;;;;7.00;2.42;;;13.50;99.90;;;;;;5035614;28;20067;-63
2022/10/22 04:51:19;;;;;;;11.80;3.55;;;13.50;99.90;;;;;;5035595;28;20103;-63
2022/10/22 04:53:46;;;;;;;9.35;2.30;;;13.50;99.90;;;;;;5052246;28;20048;-64
2022/10/22 04:56:24;;;;;;;10.27;2.38;;;13.50;99.90;;;;;;5052140;28;20049;-63
2022/10/22 04:58:59;;;;;;;12.27;2.60;;;13.40;99.90;;;;;;5052693;28;20084;-64
2022/10/22 05:01:36;;;;;;;14.27;3.63;;;13.40;99.90;;;;;;5052880;28;20072;-66
2022/10/22 05:04:10;;;;;;;13.75;3.63;;;13.40;99.90;;;;;;5051709;28;20045;-63
2022/10/22 05:06:37;;;;;;;12.48;2.60;;;13.30;99.90;;;;;;5052058;28;20497;-63
2022/10/22 05:09:06;;;;;;;10.18;2.45;;;13.30;99.90;;;;;;5052071;28;20045;-55
2022/10/22 05:11:34;;;;;;;11.90;6.30;;;13.30;99.90;;;;;;5052083;28;20052;-69
2022/10/22 05:14:02;;;;;;;11.43;3.67;;;13.20;99.90;;;;;;5051985;28;20052;-65
2022/10/22 05:16:29;;;;;;;12.82;4.82;;;13.20;99.90;;;;;;5051643;28;20194;-64
2022/10/22 05:18:57;;;;;;;12.70;3.20;;;13.20;99.90;;;;;;5053928;28;20049;-65
2022/10/22 05:21:25;;;;;;;11.43;2.58;;;13.20;99.90;;;;;;5052295;28;20416;-65
2022/10/22 05:23:52;;;;;;;11.63;3.45;;;13.20;99.90;;;;;;5053934;28;20087;-65
2022/10/22 05:26:19;;;;;;;16.38;4.20;;;13.10;99.90;;;;;;5051176;28;20102;-65
2022/10/22 05:28:47;;;;;;;10.43;3.25;;;13.10;99.90;;;;;;5052977;28;20040;-65
2022/10/22 05:31:14;;;;;;;13.13;3.45;;;13.10;99.90;;;;;;5053379;28;20037;-65
2022/10/22 05:33:41;;;;;;;16.27;3.40;;;13.00;99.90;;;;;;5051358;28;20530;-65
2022/10/22 05:36:12;;;;;;;15.98;3.28;;;13.00;99.90;;;;;;5051403;28;20049;-65
2022/10/22 05:38:39;;;;;;;16.23;2.70;;;12.90;99.90;;;;;;5034924;28;20049;-65
2022/10/22 05:41:08;;;;;;;9.40;2.90;;;12.90;99.90;;;;;;5051345;28;20048;-65
2022/10/22 05:43:35;;;;;;;18.90;3.93;;;12.90;99.90;;;;;;5051299;28;20049;-65
2022/10/22 05:46:06;;;;;;;10.23;2.92;;;12.90;99.90;;;;;;5052038;28;20106;-65
2022/10/22 05:48:33;;;;;;;12.30;3.42;;;12.80;99.90;;;;;;5053123;28;20469;-65
2022/10/22 05:51:04;;;;;;;10.93;2.60;;;12.80;99.90;;;;;;5051949;28;20102;-65
2022/10/22 05:53:32;;;;;;;9.05;2.88;;;12.80;99.90;;;;;;5052054;28;20048;-66
2022/10/22 05:56:00;;;;;;;10.80;3.58;;;12.70;99.90;;;;;;5052609;28;20063;-66
2022/10/22 05:58:28;;;;;;;11.50;3.08;;;12.70;99.90;;;;;;5051824;28;20106;-65
2022/10/22 06:00:59;;;;;;;11.07;3.25;;;12.70;99.90;;;;;;5052322;28;20052;-65
2022/10/22 06:03:27;;;;;;;17.20;3.85;;;12.70;99.90;;;;;;5051831;28;20041;-65
2022/10/22 06:05:54;;;;;;;13.85;3.03;;;12.70;99.90;;;;;;5051062;28;20037;-65
2022/10/22 06:08:21;;;;;;;13.98;3.75;;;12.60;99.90;;;;;;5052213;28;20048;-65
2022/10/22 06:10:48;;;;;;;10.88;3.38;;;12.70;99.90;;;;;;5051130;28;20060;-65
2022/10/22 06:13:15;;;;;;;14.65;3.15;;;12.60;99.90;;;;;;5034768;28;20041;-65
2022/10/22 06:15:42;;;;;;;13.45;3.53;;;12.60;99.90;;;;;;5052000;28;20041;-65
2022/10/22 06:18:10;;;;;;;13.13;3.78;;;12.60;99.90;;;;;;5051198;28;20049;-66
2022/10/22 06:20:36;;;;;;;15.80;3.38;;;12.60;99.90;;;;;;5052522;28;20041;-65
2022/10/22 06:23:03;;;;;;;22.23;3.70;;;12.60;99.90;;;;;;5050834;28;20551;-65
2022/10/22 06:25:30;;;;;;;17.77;3.58;;;12.60;99.90;;;;;;5034727;28;20045;-65
2022/10/22 06:27:57;;;;;;;20.85;4.90;;;12.60;99.90;;;;;;5052084;28;20094;-65
2022/10/22 06:30:24;;;;;;;18.42;3.33;;;12.60;99.90;;;;;;5053158;28;20365;-65
2022/10/22 06:32:51;;;;;;;17.52;3.72;;;12.60;99.90;;;;;;5052120;28;20053;-65
2022/10/22 06:35:18;;;;;;;14.95;3.67;;;12.60;99.90;;;;;;5035291;28;20092;-65
2022/10/22 06:37:46;;;;;;;17.73;3.50;;;12.60;99.90;;;;;;5053062;28;20389;-65
2022/10/22 06:40:13;;;;;;;16.45;4.38;;;12.60;99.90;;;;;;5056934;28;20048;-65
2022/10/22 06:42:40;;;;;;;13.18;3.75;;;12.60;99.90;;;;;;5054664;28;20052;-66
2022/10/22 06:45:08;;;;;;;17.92;4.25;;;12.60;99.90;;;;;;5054723;28;20041;-65
2022/10/22 06:47:35;;;;;;;18.95;5.10;;;12.60;99.90;;;;;;5054550;28;20095;-65
2022/10/22 06:50:01;;;;;;;14.27;3.53;;;12.60;99.90;;;;;;5055111;28;20098;-65
2022/10/22 06:52:28;;;;;;;17.00;3.83;;;12.60;99.90;;;;;;5054428;28;20049;-65
2022/10/22 06:54:55;;;;;;;18.00;4.57;;;12.60;99.90;;;;;;5055815;28;20072;-66
2022/10/22 06:57:22;;;;;;;18.13;3.88;;;12.60;99.90;;;;;;5056251;28;20110;-66
2022/10/22 06:59:49;;;;;;;28.58;5.40;;;12.60;99.90;;;;;;5088584;28;20041;-65
2022/10/22 07:02:16;;;;;;;29.05;4.90;;;12.60;99.90;;;;;;5055625;28;20037;-65
2022/10/22 07:04:42;;;;;;;22.40;4.57;;;12.60;99.90;;;;;;5054690;28;20485;-65
2022/10/22 07:07:09;;;;;;;19.98;5.03;;;12.70;99.90;;;;;;5056248;28;20057;-65
2022/10/22 07:09:38;;;;;;;20.98;4.57;;;12.70;99.90;;;;;;5054023;28;20041;-65
2022/10/22 07:12:05;;;;;;;22.52;5.47;;;12.70;99.90;;;;;;5054010;28;20049;-66
2022/10/22 07:14:32;;;;;;;26.52;4.60;;;12.80;99.90;;;;;;5056065;28;20048;-66
2022/10/22 07:16:59;;;;;;;14.38;3.38;;;12.80;99.90;;;;;;5055060;28;20052;-66
2022/10/22 07:19:26;;;;;;;21.15;5.28;;;12.90;99.90;;;;;;5055022;28;20091;-65
2022/10/22 07:21:52;;;;;;;26.88;8.88;;;12.90;99.90;;;;;;5037243;28;20491;-66
2022/10/22 07:24:19;;;;;;;72.00;47.85;;;13.00;99.90;;;;;;5053910;28;20077;-67
2022/10/22 07:26:46;;;;;;;22.90;8.07;;;13.10;99.90;;;;;;5054447;28;20048;-65
2022/10/22 07:29:14;;;;;;;19.60;5.32;;;13.20;99.90;;;;;;5054808;28;20041;-65
2022/10/22 07:31:41;;;;;;;19.45;5.57;;;13.20;99.90;;;;;;5053578;28;20439;-65
2022/10/22 07:34:08;;;;;;;25.98;4.75;;;13.30;99.90;;;;;;5054517;28;20041;-66
2022/10/22 07:36:35;;;;;;;15.85;4.20;;;13.30;99.90;;;;;;5053551;28;20120;-66
2022/10/22 07:39:02;;;;;;;17.65;4.28;;;13.40;99.90;;;;;;5053697;28;20048;-66
2022/10/22 07:41:29;;;;;;;16.83;5.32;;;13.40;99.90;;;;;;5055562;28;20048;-65
2022/10/22 07:43:56;;;;;;;22.23;6.13;;;13.50;99.90;;;;;;5055246;28;20041;-66
2022/10/22 07:46:24;;;;;;;21.02;6.28;;;13.50;99.90;;;;;;5036874;28;20049;-66
2022/10/22 07:48:50;;;;;;;21.02;5.63;;;13.50;99.90;;;;;;5053342;28;20421;-66
2022/10/22 07:51:17;;;;;;;26.65;5.65;;;13.50;99.90;;;;;;5053505;28;20048;-66
2022/10/22 07:53:44;;;;;;;16.33;4.50;;;13.50;99.90;;;;;;5054472;28;20041;-65
2022/10/22 07:56:11;;;;;;;19.88;4.97;;;13.60;99.90;;;;;;5053493;28;20103;-65
2022/10/22 07:58:40;;;;;;;17.77;4.63;;;13.60;99.90;;;;;;5053197;28;20041;-65
2022/10/22 08:01:07;;;;;;;14.00;3.95;;;13.50;99.90;;;;;;5053883;28;20372;-65
2022/10/22 08:03:34;;;;;;;19.05;4.70;;;13.50;99.90;;;;;;5053422;28;20132;-65
2022/10/22 08:06:01;;;;;;;20.35;4.97;;;13.50;99.90;;;;;;5053624;28;20044;-68
2022/10/22 08:08:31;;;;;;;23.05;4.72;;;13.50;99.90;;;;;;5053371;28;20044;-62
2022/10/22 08:10:58;;;;;;;;;;;13.50;99.90;;;;;;5053520;28;20051;-61
2022/10/22 08:13:26;;;;;;;15.02;5.18;;;13.50;99.90;;;;;;5054985;28;20279;-62
2022/10/22 08:15:53;;;;;;;19.38;4.60;;;13.50;99.90;;;;;;5054070;28;20103;-61
2022/10/22 08:18:23;;;;;;;25.80;5.53;;;13.50;99.90;;;;;;5054993;28;20080;-65
2022/10/22 08:20:50;;;;;;;34.67;17.98;;;13.50;99.90;;;;;;5053014;28;20077;-63
2022/10/22 08:23:17;;;;;;;17.85;4.80;;;13.60;99.90;;;;;;5053153;28;20482;-62
2022/10/22 08:25:44;;;;;;;19.90;4.47;;;13.60;99.90;;;;;;5052560;28;20439;-61
2022/10/22 08:28:11;;;;;;;28.02;5.82;;;13.60;99.90;;;;;;5052905;28;20178;-62
2022/10/22 08:30:39;;;;;;;608.85;373.23;;;13.60;99.90;;;;;;5055254;28;20045;-63
2022/10/22 08:33:06;;;;;;;148.65;117.65;;;13.70;99.90;;;;;;5053216;28;20049;-65
2022/10/22 08:35:32;;;;;;;43.60;25.00;;;13.70;99.90;;;;;;5052735;28;20084;-63
2022/10/22 08:37:59;;;;;;;29.35;14.82;;;13.70;99.90;;;;;;5053914;28;20114;-61
2022/10/22 08:40:31;;;;;;;24.60;7.47;;;13.80;99.90;;;;;;5052954;28;20189;-62
2022/10/22 08:43:31;;;;;;;24.67;6.38;;;13.70;99.90;;;;;;5052217;28;20064;-62
2022/10/22 08:45:58;;;;;;;19.40;4.95;;;13.70;99.90;;;;;;5052617;28;20084;-62
2022/10/22 08:49:03;;;;;;;22.85;5.32;;;13.80;99.90;;;;;;5054150;28;20094;-62
2022/10/22 08:51:33;;;;;;;22.98;5.28;;;13.80;99.90;;;;;;5031077;28;20103;-62
2022/10/22 08:54:11;;;;;;;20.95;5.70;;;13.80;99.90;;;;;;5015025;28;20203;-62
2022/10/22 08:56:38;;;;;;;24.95;5.50;;;13.90;99.90;;;;;;5043962;28;20118;-62
2022/10/22 08:59:07;;;;;;;21.15;4.78;;;13.90;99.90;;;;;;5053032;28;20041;-62
2022/10/22 09:01:40;;;;;;;21.88;4.85;;;13.90;99.90;;;;;;5051552;28;20049;-62
2022/10/22 09:04:20;;;;;;;18.92;3.60;;;14.00;99.90;;;;;;5052146;28;20053;-61
2022/10/22 09:06:47;;;;;;;22.70;4.80;;;14.00;99.90;;;;;;5051766;28;20469;-62
2022/10/22 09:09:19;;;;;;;21.10;5.07;;;14.00;99.90;;;;;;5051812;28;20045;-62
2022/10/22 09:11:51;;;;;;;26.20;5.25;;;14.10;99.90;;;;;;5051938;28;20053;-62
2022/10/22 09:14:22;;;;;;;15.88;4.25;;;14.20;99.90;;;;;;5051742;28;20048;-63
2022/10/22 09:17:16;;;;;;;21.67;5.60;;;14.20;99.90;;;;;;5052188;28;20110;-62
2022/10/22 09:20:08;;;;;;;16.38;5.38;;;14.40;99.90;;;;;;5053741;28;20080;-62
2022/10/22 09:22:50;;;;;;;17.17;3.95;;;14.50;99.90;;;;;;5053427;28;20048;-62
2022/10/22 09:25:24;;;;;;;16.00;4.80;;;14.60;99.90;;;;;;5051721;28;20093;-62
2022/10/22 09:27:57;;;;;;;18.70;5.38;;;14.60;99.90;;;;;;5035912;28;20056;-62
2022/10/22 09:30:25;;;;;;;16.67;5.20;;;14.70;99.90;;;;;;5054056;28;20372;-62
2022/10/22 09:33:06;;;;;;;13.82;4.40;;;14.80;99.90;;;;;;5052407;28;20040;-62
2022/10/22 09:35:34;;;;;;;18.27;5.93;;;14.90;99.90;;;;;;5036561;28;20095;-62
2022/10/22 09:38:05;;;;;;;19.45;4.90;;;15.10;99.90;;;;;;5052820;28;20464;-62
2022/10/22 09:40:48;;;;;;;28.25;6.90;;;15.10;99.90;;;;;;5051570;28;20060;-62
2022/10/22 09:43:15;;;;;;;13.75;4.22;;;15.30;99.90;;;;;;5052048;28;20041;-62
2022/10/22 09:45:43;;;;;;;15.45;4.22;;;15.40;99.90;;;;;;5053276;28;20041;-62
2022/10/22 09:48:25;;;;;;;16.52;4.10;;;15.40;99.90;;;;;;5035111;28;20041;-61
2022/10/22 09:50:59;;;;;;;17.17;3.67;;;15.40;99.90;;;;;;5052919;28;20099;-62
2022/10/22 09:53:28;;;;;;;11.80;3.40;;;15.50;99.90;;;;;;5052191;28;20424;-62
2022/10/22 09:55:56;;;;;;;18.45;3.88;;;15.50;99.90;;;;;;5051548;28;20041;-61
2022/10/22 09:58:24;;;;;;;13.90;4.13;;;15.60;99.90;;;;;;5052341;28;20041;-61
2022/10/22 10:00:56;;;;;;;19.88;4.65;;;15.60;99.90;;;;;;5034917;28;20045;-61
2022/10/22 10:03:25;;;;;;;18.77;4.15;;;15.60;99.90;;;;;;5051352;28;20103;-62
2022/10/22 10:05:56;;;;;;;16.85;4.07;;;15.70;99.90;;;;;;5052158;28;20468;-62
2022/10/22 10:08:28;;;;;;;13.82;3.38;;;15.70;99.90;;;;;;5052635;28;20067;-62
2022/10/22 10:11:08;;;;;;;14.73;3.65;;;15.70;99.90;;;;;;5052199;28;20049;-62
2022/10/22 10:13:44;;;;;;;14.32;3.25;;;15.70;99.90;;;;;;5054423;28;20045;-62
2022/10/22 10:16:23;;;;;;;14.35;3.97;;;15.70;99.90;;;;;;5056170;28;20052;-62
2022/10/22 10:18:54;;;;;;;16.20;4.32;;;15.80;99.90;;;;;;5055858;28;20102;-62
2022/10/22 10:21:30;;;;;;;13.60;3.78;;;15.90;99.90;;;;;;5038712;28;20386;-62
2022/10/22 10:24:05;;;;;;;14.57;4.05;;;15.90;99.90;;;;;;5055577;28;20044;-62
2022/10/22 10:26:36;;;;;;;12.32;4.20;;;16.00;99.90;;;;;;5055469;28;20094;-62
2022/10/22 10:29:03;;;;;;;25.67;11.90;;;15.90;99.90;;;;;;5055652;28;20045;-62
2022/10/22 10:31:37;;;;;;;17.95;5.20;;;15.90;99.90;;;;;;5055878;28;20052;-62
2022/10/22 10:34:10;;;;;;;17.50;4.60;;;15.90;99.90;;;;;;5039113;28;20049;-62
2022/10/22 10:36:51;;;;;;;16.27;4.78;;;15.90;99.90;;;;;;5054628;28;20189;-62
2022/10/22 10:39:39;;;;;;;13.23;3.83;;;16.00;99.90;;;;;;5056933;28;20144;-62
2022/10/22 10:42:19;;;;;;;12.98;3.42;;;16.00;99.90;;;;;;5055450;28;20095;-62
2022/10/22 10:45:04;;;;;;;13.90;3.13;;;16.00;99.90;;;;;;5055228;28;20098;-62
2022/10/22 10:47:49;;;;;;;18.67;4.13;;;16.10;99.90;;;;;;5055140;28;20108;-62
2022/10/22 10:50:27;;;;;;;17.23;4.32;;;16.20;99.90;;;;;;5056019;28;20136;-62
2022/10/22 10:53:09;;;;;;;14.10;4.15;;;16.20;99.90;;;;;;5054763;28;20497;-62
2022/10/22 10:56:17;;;;;;;12.98;4.35;;;16.30;99.90;;;;;;5055091;28;20103;-62
2022/10/22 10:59:07;;;;;;;14.50;4.78;;;16.30;99.90;;;;;;5048449;28;20107;-62
2022/10/22 11:02:11;;;;;;;14.38;3.78;;;16.40;99.90;;;;;;5055553;28;20087;-62
2022/10/22 11:04:38;;;;;;;12.38;3.53;;;16.50;99.90;;;;;;5055375;28;20143;-62
2022/10/22 11:07:08;;;;;;;10.07;3.00;;;16.50;99.90;;;;;;5055293;28;20041;-62
2022/10/22 11:10:04;;;;;;;16.08;3.97;;;16.60;99.90;;;;;;5054332;28;20037;-62
2022/10/22 11:12:33;;;;;;;;;;;16.60;99.90;;;;;;5055597;28;20127;-62
2022/10/22 11:15:24;;;;;;;14.63;4.07;;;16.70;99.90;;;;;;5087380;28;19923;-62
2022/10/22 11:17:51;;;;;;;13.73;3.97;;;16.70;99.90;;;;;;5055972;28;20110;-63
2022/10/22 11:20:28;;;;;;;15.50;4.82;;;16.70;99.90;;;;;;5056425;28;20048;-66
2022/10/22 11:23:08;;;;;;;12.10;3.42;;;16.80;99.90;;;;;;5054378;28;20045;-64
2022/10/22 11:25:50;;;;;;;14.00;3.35;;;16.90;99.90;;;;;;5054461;28;20076;-63
2022/10/22 11:28:35;;;;;;;11.35;3.50;;;17.00;99.90;;;;;;5056644;28;20095;-66
2022/10/22 11:31:03;;;;;;;14.95;3.75;;;17.10;99.90;;;;;;5038616;28;20052;-61
2022/10/22 11:34:08;;;;;;;37.83;29.85;;;17.20;99.90;;;;;;5054161;28;20476;-66
2022/10/22 11:37:08;;;;;;;30.15;22.20;;;17.30;99.90;;;;;;5055464;28;20076;-69
2022/10/22 11:39:48;;;;;;;15.32;7.80;;;17.40;99.90;;;;;;5071788;28;20377;-66
2022/10/22 11:42:20;;;;;;;17.05;6.40;;;17.40;99.90;;;;;;5055040;28;20400;-69
2022/10/22 11:45:05;;;;;;;15.50;3.88;;;17.50;99.90;;;;;;5054165;28;20041;-69
2022/10/22 11:48:04;;;;;;;12.20;4.03;;;17.60;99.90;;;;;;5054245;28;20094;-67
2022/10/22 11:50:45;;;;;;;18.88;4.15;;;17.60;99.90;;;;;;5054076;28;20053;-69
2022/10/22 11:53:37;;;;;;;15.73;3.78;;;17.60;99.90;;;;;;5055714;28;20087;-70
2022/10/22 11:56:37;;;;;;;15.23;4.25;;;17.60;99.90;;;;;;5054492;28;20072;-71
2022/10/22 11:59:07;;;;;;;9.57;3.53;;;17.60;99.90;;;;;;5054036;28;20041;-68
2022/10/22 12:01:53;;;;;;;11.77;3.80;;;17.70;99.90;;;;;;5054050;28;20115;-71
2022/10/22 12:04:21;;;;;;;9.50;3.38;;;17.80;99.90;;;;;;5055775;28;20044;-72
2022/10/22 12:07:02;;;;;;;11.70;3.47;;;17.90;99.90;;;;;;5053843;28;20051;-66
2022/10/22 12:09:31;;;;;;;12.52;3.35;;;17.90;99.90;;;;;;5037139;28;20049;-66
2022/10/22 12:12:12;;;;;;;14.43;4.43;;;17.90;99.90;;;;;;5053691;28;20049;-67
2022/10/22 12:15:15;;;;;;;21.17;13.70;;;17.90;99.90;;;;;;5053616;28;20103;-68
2022/10/22 12:17:55;;;;;;;;;;;;;;;;;;;;;
2022/10/22 12:20:24;;;;;;;14.23;5.18;;;17.80;99.90;;;;;;5053684;28;20072;-65
2022/10/22 12:22:51;;;;;;;8.93;3.08;;;17.70;99.90;;;;;;5053287;28;20048;-65
2022/10/22 12:25:22;;;;;;;11.95;3.78;;;17.70;99.90;;;;;;5053065;28;20526;-70
2022/10/22 12:27:52;;;;;;;11.52;3.28;;;17.80;99.90;;;;;;5053168;28;20099;-64
2022/10/22 12:30:29;;;;;;;16.25;9.45;;;17.80;99.90;;;;;;5053496;28;20053;-69
2022/10/22 12:32:59;;;;;;;66.15;56.97;;;17.80;99.90;;;;;;5054432;28;20049;-66
2022/10/22 12:35:28;;;;;;;31.35;22.67;;;18.00;99.90;;;;;;5035976;28;20086;-67
2022/10/22 12:37:56;;;;;;;;;;;18.20;99.90;;;;;;5054995;28;20040;-63
2022/10/22 12:40:33;;;;;;;13.43;5.15;;;18.30;99.90;;;;;;5086383;28;19920;-67
2022/10/22 12:43:10;;;;;;;14.80;5.07;;;18.30;99.90;;;;;;5036529;28;20045;-70
2022/10/22 12:45:37;;;;;;;15.10;3.80;;;18.30;99.90;;;;;;5053896;28;20037;-65
2022/10/22 12:48:20;;;;;;;9.80;3.30;;;18.20;99.90;;;;;;5036712;28;20102;-62
2022/10/22 12:50:49;;;;;;;14.02;2.80;;;18.10;99.90;;;;;;5054002;28;20044;-63
2022/10/22 12:53:27;;;;;;;12.75;2.95;;;18.00;99.90;;;;;;5054179;28;20048;-64
2022/10/22 12:55:55;;;;;;;13.63;3.45;;;18.00;99.90;;;;;;5036576;28;20045;-63
2022/10/22 12:58:25;;;;;;;8.88;2.60;;;18.00;99.90;;;;;;5054207;28;20097;-63
2022/10/22 13:01:00;;;;;;;13.82;3.03;;;18.10;99.90;;;;;;5053391;28;20057;-63
2022/10/22 13:03:49;;;;;;;11.02;2.85;;;18.10;99.90;;;;;;5053628;28;20052;-64